Time;durP1;ratioP1;P1;durP2;ratioP2;P2;SDS_P1;SDS_P2;PMS_P1;PMS_P2;Temp;Humidity;BMP_temperature;BMP_pressure;BME280_temperature;BME280_humidity;BME280_pressure;Samples;Min_cycle;Max_cycle;Signal;HPM_P1;HPM_P2
2022/04/05 00:02:50;;;;;;;;;;;;;;;2.80;73.02;98625.59;2109037;83;20747;-81
2022/04/05 00:05:51;;;;;;;;;;;;;;;2.83;73.02;98620.05;2111780;83;20147;-82
2022/04/05 00:08:52;;;;;;;;;;;;;;;2.86;73.02;98621.05;2111472;83;20468;-81
2022/04/05 00:11:53;;;;;;;;;;;;;;;2.87;73.03;98606.49;2108323;83;20157;-81
2022/04/05 00:14:54;;;;;;;;;;;;;;;2.91;72.89;98607.00;2110184;83;20117;-81
2022/04/05 00:17:55;;;;;;;;;;;;;;;2.92;72.78;98607.32;2107922;83;20124;-84
2022/04/05 00:20:56;;;;;;;;;;;;;;;2.95;72.89;98614.87;2110429;83;20446;-80
2022/04/05 00:23:57;;;;;;;;;;;;;;;2.97;72.93;98612.11;2106917;83;20471;-81
2022/04/05 00:26:57;;;;;;;;;;;;;;;2.99;72.75;98614.91;2112228;83;20172;-82
2022/04/05 00:29:59;;;;;;;;;;;;;;;2.99;72.96;98616.22;2105228;83;20181;-82
2022/04/05 00:33:00;;;;;;;;;;;;;;;3.00;72.89;98602.13;2108529;83;20182;-85
2022/04/05 00:36:01;;;;;;;;;;;;;;;2.99;73.03;98612.29;2108946;83;20356;-80
2022/04/05 00:39:02;;;;;;;;;;;;;;;3.01;72.90;98606.87;2106960;83;20139;-83
2022/04/05 00:42:04;;;;;;;;;;;;;;;3.01;73.02;98603.77;2112828;83;20282;-85
2022/04/05 00:45:06;;;;;;;;;;;;;;;3.00;72.95;98602.13;2106638;83;20174;-84
2022/04/05 00:48:07;;;;;;;;;;;;;;;3.00;73.22;98596.08;2105873;83;20478;-80
2022/04/05 00:51:08;;;;;;;;;;;;;;;2.98;73.47;98587.05;2108514;83;20132;-84
2022/04/05 00:54:13;;;;;;;;;;;;;;;2.99;73.21;98586.58;2112566;83;20195;-81
2022/04/05 00:57:16;;;;;;;;;;;;;;;2.98;73.23;98584.92;2088560;83;20127;-80
2022/04/05 01:00:17;;;;;;;;;;;;;;;3.00;73.41;98581.17;2105959;83;20167;-83
2022/04/05 01:03:28;;;;;;;;;;;;;;;3.04;73.16;98577.73;2108696;83;20128;-81
2022/04/05 01:06:32;;;;;;;;;;;;;;;3.05;73.20;98574.16;2108965;83;20474;-82
2022/04/05 01:09:33;;;;;;;;;;;;;;;3.05;73.27;98586.77;2107781;83;20148;-83
2022/04/05 01:12:34;;;;;;;;;;;;;;;3.08;73.34;98576.47;2108819;83;20183;-83
2022/04/05 01:15:35;;;;;;;;;;;;;;;3.12;73.01;98577.28;2118133;83;20136;-81
2022/04/05 01:18:36;;;;;;;;;;;;;;;3.18;72.90;98573.71;2109013;83;20127;-84
2022/04/05 01:21:37;;;;;;;;;;;;;;;3.27;72.74;98567.05;2110720;83;20228;-82
2022/04/05 01:24:39;;;;;;;;;;;;;;;3.33;72.59;98566.91;2107944;83;20213;-82
2022/04/05 01:27:39;;;;;;;;;;;;;;;3.36;72.71;98574.45;2115015;83;20138;-83
2022/04/05 01:30:41;;;;;;;;;;;;;;;3.38;72.58;98569.88;2104965;83;20124;-81
2022/04/05 01:33:42;;;;;;;;;;;;;;;3.40;72.40;98571.83;2108747;83;20489;-80
2022/04/05 01:36:50;;;;;;;;;;;;;;;3.42;72.49;98573.81;2111956;83;20132;-82
2022/04/05 01:39:52;;;;;;;;;;;;;;;3.43;72.32;98568.89;2106557;83;20266;-81
2022/04/05 01:42:52;;;;;;;;;;;;;;;3.47;72.23;98562.86;2107423;83;20487;-83
2022/04/05 01:45:53;;;;;;;;;;;;;;;3.50;72.14;98566.48;2117484;83;20120;-84
2022/04/05 01:48:54;;;;;;;;;;;;;;;3.52;72.27;98552.22;2125107;83;20116;-82
2022/04/05 01:51:55;;;;;;;;;;;;;;;3.55;72.05;98566.83;2124352;83;20133;-82
2022/04/05 01:54:56;;;;;;;;;;;;;;;3.57;72.02;98567.47;2127112;83;20178;-80
2022/04/05 01:57:57;;;;;;;;;;;;;;;3.58;72.09;98560.76;2125352;83;20149;-81
2022/04/05 02:01:01;;;;;;;;;;;;;;;3.59;72.13;98565.02;2124858;83;20128;-82
2022/04/05 02:04:01;;;;;;;;;;;;;;;3.62;71.98;98561.75;2124012;83;20142;-83
2022/04/05 02:07:12;;;;;;;;;;;;;;;3.63;71.85;98564.69;2120749;83;20150;-80
2022/04/05 02:10:13;;;;;;;;;;;;;;;3.64;71.86;98562.41;2124524;83;20139;-85
2022/04/05 02:13:15;;;;;;;;;;;;;;;3.64;71.99;98559.80;2125082;83;20136;-84
2022/04/05 02:16:18;;;;;;;;;;;;;;;3.64;72.07;98555.86;2126220;83;20163;-81
2022/04/05 02:19:19;;;;;;;;;;;;;;;3.64;72.09;98546.68;2122648;83;20157;-81
2022/04/05 02:22:20;;;;;;;;;;;;;;;3.66;72.02;98552.56;2122307;82;20202;-83
2022/04/05 02:25:22;;;;;;;;;;;;;;;3.67;71.85;98547.17;2121138;83;20158;-80
2022/04/05 02:28:24;;;;;;;;;;;;;;;3.67;72.19;98554.22;2123880;83;20156;-86
2022/04/05 02:31:26;;;;;;;;;;;;;;;3.65;72.19;98553.06;2120849;83;20154;-81
2022/04/05 02:34:28;;;;;;;;;;;;;;;3.66;72.14;98549.94;2122609;83;20141;-82
2022/04/05 02:37:30;;;;;;;;;;;;;;;3.67;72.19;98546.36;2124210;82;20164;-81
2022/04/05 02:40:32;;;;;;;;;;;;;;;3.67;72.45;98549.80;2127518;83;20135;-83
2022/04/05 02:43:34;;;;;;;;;;;;;;;3.68;72.51;98546.67;2126745;83;20150;-82
2022/04/05 02:46:36;;;;;;;;;;;;;;;3.68;72.67;98541.42;2114855;83;20156;-82
2022/04/05 02:49:37;;;;;;;;;;;;;;;3.66;72.64;98542.07;2109667;83;20156;-82
2022/04/05 02:52:39;;;;;;;;;;;;;;;3.67;72.91;98548.98;2111953;83;20144;-84
2022/04/05 02:55:42;;;;;;;;;;;;;;;3.68;72.49;98555.86;2113033;83;20162;-84
2022/04/05 02:58:47;;;;;;;;;;;;;;;3.66;72.85;98545.54;2109959;83;20558;-79
2022/04/05 03:01:47;;;;;;;;;;;;;;;3.67;73.05;98536.68;2112928;83;20162;-81
2022/04/05 03:04:48;;;;;;;;;;;;;;;3.70;72.68;98540.78;2106542;83;20317;-81
2022/04/05 03:07:50;;;;;;;;;;;;;;;3.71;72.67;98543.73;2081184;83;20155;-81
2022/04/05 03:10:53;;;;;;;;;;;;;;;3.72;72.82;98537.52;2108451;83;20976;-81
2022/04/05 03:13:54;;;;;;;;;;;;;;;3.75;72.56;98541.12;2109246;83;20290;-82
2022/04/05 03:16:56;;;;;;;;;;;;;;;3.76;72.60;98546.69;2107569;83;20155;-85
2022/04/05 03:19:59;;;;;;;;;;;;;;;3.76;72.52;98550.13;2089860;83;20175;-81
2022/04/05 03:23:00;;;;;;;;;;;;;;;3.78;72.80;98546.05;2108867;83;20132;-81
2022/04/05 03:26:01;;;;;;;;;;;;;;;3.79;72.63;98550.30;2106670;83;20116;-81
2022/04/05 03:29:03;;;;;;;;;;;;;;;3.79;72.80;98547.18;2090364;83;20159;-81
2022/04/05 03:32:05;;;;;;;;;;;;;;;3.78;72.58;98549.98;2113346;83;20216;-82
2022/04/05 03:35:07;;;;;;;;;;;;;;;3.78;72.73;98546.05;2110478;83;20211;-82
2022/04/05 03:38:08;;;;;;;;;;;;;;;3.78;72.73;98550.80;2107957;83;20143;-81
2022/04/05 03:41:10;;;;;;;;;;;;;;;3.78;72.63;98546.86;2103198;83;20143;-78
2022/04/05 03:44:13;;;;;;;;;;;;;;;3.79;72.99;98547.18;2107130;83;20362;-85
2022/04/05 03:47:16;;;;;;;;;;;;;;;3.78;72.85;98543.42;2119765;83;20158;-80
2022/04/05 03:50:18;;;;;;;;;;;;;;;3.76;73.10;98544.88;2130008;83;20155;-79
2022/04/05 03:53:21;;;;;;;;;;;;;;;3.75;73.08;98541.94;2123709;82;20207;-82
2022/04/05 03:56:23;;;;;;;;;;;;;;;3.74;73.26;98546.02;2124557;83;20146;-86
2022/04/05 03:59:26;;;;;;;;;;;;;;;3.71;73.27;98544.54;2109774;82;20156;-80
2022/04/05 04:02:28;;;;;;;;;;;;;;;3.69;73.79;98543.05;2121710;83;20161;-82
2022/04/05 04:05:29;;;;;;;;;;;;;;;3.66;73.71;98546.00;2124171;83;20495;-81
2022/04/05 04:08:30;;;;;;;;;;;;;;;3.65;74.31;98544.38;2126148;83;20175;-83
2022/04/05 04:11:31;;;;;;;;;;;;;;;3.62;74.46;98547.32;2120792;83;20111;-81
2022/04/05 04:14:33;;;;;;;;;;;;;;;3.58;74.66;98547.64;2124855;83;20140;-80
2022/04/05 04:17:36;;;;;;;;;;;;;;;3.58;74.42;98550.77;2126967;83;20132;-79
2022/04/05 04:20:42;;;;;;;;;;;;;;;3.55;75.14;98541.41;2127160;83;20168;-79
2022/04/05 04:23:42;;;;;;;;;;;;;;;3.53;75.17;98539.43;2125600;83;20447;-78
2022/04/05 04:26:44;;;;;;;;;;;;;;;3.52;75.43;98549.60;2123448;83;20233;-79
2022/04/05 04:29:45;;;;;;;;;;;;;;;3.51;75.67;98546.63;2127020;83;20331;-79
2022/04/05 04:32:46;;;;;;;;;;;;;;;3.51;75.48;98551.88;2123152;83;20474;-80
2022/04/05 04:35:49;;;;;;;;;;;;;;;3.51;76.05;98557.61;2103610;83;20526;-81
2022/04/05 04:38:50;;;;;;;;;;;;;;;3.52;76.00;98556.16;2125556;83;20616;-79
2022/04/05 04:41:51;;;;;;;;;;;;;;;3.52;76.16;98561.41;2126951;82;20153;-83
2022/04/05 04:44:52;;;;;;;;;;;;;;;3.53;76.23;98564.84;2127045;83;20453;-82
2022/04/05 04:47:53;;;;;;;;;;;;;;;3.51;76.54;98559.74;2110784;83;20183;-79
2022/04/05 04:50:54;;;;;;;;;;;;;;;3.50;76.63;98562.05;2108952;83;20157;-81
2022/04/05 04:53:55;;;;;;;;;;;;;;;3.50;76.66;98564.67;2114275;83;21139;-81
2022/04/05 04:56:56;;;;;;;;;;;;;;;3.50;76.88;98570.41;2108280;83;20134;-80
2022/04/05 04:59:57;;;;;;;;;;;;;;;3.49;77.09;98572.22;2112609;83;20438;-82
2022/04/05 05:02:58;;;;;;;;;;;;;;;3.48;77.28;98578.92;2113216;83;20202;-79
2022/04/05 05:05:59;;;;;;;;;;;;;;;3.47;77.26;98582.53;2109829;83;20179;-79
2022/04/05 05:08:59;;;;;;;;;;;;;;;3.46;77.94;98568.57;2113226;83;20154;-82
2022/04/05 05:12:01;;;;;;;;;;;;;;;3.45;77.46;98573.99;2109404;83;20186;-79
2022/04/05 05:15:02;;;;;;;;;;;;;;;3.43;78.06;98577.25;2110779;83;20165;-81
2022/04/05 05:18:04;;;;;;;;;;;;;;;3.42;78.22;98578.24;2109425;83;20515;-84
2022/04/05 05:21:05;;;;;;;;;;;;;;;3.40;78.82;98584.95;2112727;83;20155;-83
2022/04/05 05:24:06;;;;;;;;;;;;;;;3.40;78.43;98582.33;2110470;83;20148;-82
2022/04/05 05:27:07;;;;;;;;;;;;;;;3.40;78.51;98587.56;2110060;83;20151;-84
2022/04/05 05:30:18;;;;;;;;;;;;;;;3.42;78.89;98587.42;2112810;83;20532;-84
2022/04/05 05:33:19;;;;;;;;;;;;;;;3.41;78.50;98589.23;2086432;83;20159;-84
2022/04/05 05:36:20;;;;;;;;;;;;;;;3.40;79.24;98588.88;2099487;83;20176;-84
2022/04/05 05:39:22;;;;;;;;;;;;;;;3.43;78.87;98600.85;2117641;83;20151;-84
2022/04/05 05:42:23;;;;;;;;;;;;;;;3.43;78.98;98601.67;2107182;83;20164;-85
2022/04/05 05:45:26;;;;;;;;;;;;;;;3.44;78.84;98605.14;2106115;83;20138;-85
2022/04/05 05:48:27;;;;;;;;;;;;;;;3.48;79.20;98607.77;2109639;83;20155;-83
2022/04/05 05:51:28;;;;;;;;;;;;;;;3.51;79.68;98621.37;2116725;83;20179;-86
2022/04/05 05:54:30;;;;;;;;;;;;;;;3.52;79.51;98624.34;2122375;83;20200;-84
2022/04/05 05:57:31;;;;;;;;;;;;;;;3.55;79.93;98623.21;2116117;83;20257;-84
2022/04/05 06:00:32;;;;;;;;;;;;;;;3.55;79.64;98630.58;2099748;83;20143;-83
2022/04/05 06:03:41;;;;;;;;;;;;;;;3.57;79.43;98635.66;2116306;83;20161;-85
2022/04/05 06:06:44;;;;;;;;;;;;;;;3.48;79.70;98619.06;2111312;83;20457;-84
2022/04/05 06:09:46;;;;;;;;;;;;;;;3.61;79.79;98645.36;2113930;83;20162;-81
2022/04/05 06:12:55;;;;;;;;;;;;;;;3.62;79.94;98641.25;2117963;83;20211;-84
2022/04/05 06:19:35;;;;;;;;;;;;;;;3.53;79.70;98627.78;2001756;88;20589;-83
2022/04/05 06:22:23;;;;;;;;;;;;;;;3.66;79.90;98650.47;2028258;86;20694;-81
2022/04/05 06:25:27;;;;;;;;;;;;;;;3.67;79.93;98656.03;2105574;83;20144;-84
2022/04/05 06:28:29;;;;;;;;;;;;;;;3.70;80.10;98662.77;2125522;82;20485;-83
2022/04/05 06:31:30;;;;;;;;;;;;;;;3.74;80.00;98658.84;2116303;82;20113;-84
2022/04/05 06:34:31;;;;;;;;;;;;;;;3.76;80.52;98664.75;2109979;82;20168;-83
2022/04/05 06:37:32;;;;;;;;;;;;;;;3.78;80.00;98666.73;2105759;83;20120;-84
2022/04/05 06:40:34;;;;;;;;;;;;;;;3.79;80.07;98672.30;2125888;82;20111;-83
2022/04/05 06:43:35;;;;;;;;;;;;;;;3.80;80.18;98675.25;2088002;83;20178;-83
2022/04/05 06:46:36;;;;;;;;;;;;;;;3.80;80.46;98677.41;2116201;82;20188;-82
2022/04/05 06:49:38;;;;;;;;;;;;;;;3.82;80.23;98677.23;2121489;82;20174;-83
2022/04/05 06:52:40;;;;;;;;;;;;;;;3.85;80.33;98683.47;2130374;82;20137;-83
2022/04/05 06:55:41;;;;;;;;;;;;;;;3.87;80.38;98681.52;2124212;83;20130;-83
2022/04/05 06:58:42;;;;;;;;;;;;;;;3.86;80.44;98693.01;2117483;83;20126;-82
2022/04/05 07:01:43;;;;;;;;;;;;;;;3.91;80.27;98697.27;2118623;83;20193;-79
2022/04/05 07:04:44;;;;;;;;;;;;;;;3.92;80.21;98691.55;2121855;83;20128;-79
2022/04/05 07:07:45;;;;;;;;;;;;;;;3.93;80.45;98694.50;2118846;83;20158;-79
2022/04/05 07:10:46;;;;;;;;;;;;;;;3.94;80.31;98691.73;2118740;83;20137;-81
2022/04/05 07:13:47;;;;;;;;;;;;;;;3.96;80.46;98694.99;2119138;83;20172;-81
2022/04/05 07:16:48;;;;;;;;;;;;;;;3.98;80.31;98701.41;2120116;83;20832;-80
2022/04/05 07:19:49;;;;;;;;;;;;;;;3.98;80.21;98699.59;2118028;83;20133;-81
2022/04/05 07:22:50;;;;;;;;;;;;;;;3.99;80.30;98699.92;2121240;83;20187;-79
2022/04/05 07:25:51;;;;;;;;;;;;;;;3.99;80.50;98699.92;2100086;83;20134;-80
2022/04/05 07:28:52;;;;;;;;;;;;;;;4.00;80.51;98704.70;2119036;83;20158;-82
2022/04/05 07:31:53;;;;;;;;;;;;;;;3.98;80.59;98699.59;2118970;83;20160;-80
2022/04/05 07:34:54;;;;;;;;;;;;;;;4.00;80.73;98706.02;2122323;83;20537;-79
2022/04/05 07:37:55;;;;;;;;;;;;;;;4.01;80.81;98711.59;2121653;83;20217;-80
2022/04/05 07:40:57;;;;;;;;;;;;;;;4.00;80.71;98716.02;2124306;83;20485;-81
2022/04/05 07:43:58;;;;;;;;;;;;;;;4.03;80.64;98721.44;2119853;83;20155;-80
2022/04/05 07:46:59;;;;;;;;;;;;;;;4.07;80.64;98727.19;2126041;83;20139;-80
2022/04/05 07:50:00;;;;;;;;;;;;;;;4.11;81.23;98729.81;2127347;83;20169;-80
2022/04/05 07:53:00;;;;;;;;;;;;;;;4.16;80.68;98732.30;2126125;82;20150;-82
2022/04/05 07:56:01;;;;;;;;;;;;;;;4.21;80.70;98743.64;2126914;83;20553;-81
2022/04/05 07:59:03;;;;;;;;;;;;;;;4.23;80.77;98737.75;2129772;82;20139;-81
2022/04/05 08:02:04;;;;;;;;;;;;;;;4.29;81.20;98739.73;2123108;83;20190;-80
2022/04/05 08:05:05;;;;;;;;;;;;;;;4.33;81.26;98747.60;2124602;83;20184;-81
2022/04/05 08:08:07;;;;;;;;;;;;;;;4.35;80.93;98752.71;2124813;83;20154;-81
2022/04/05 08:11:09;;;;;;;;;;;;;;;4.37;80.83;98754.20;2122959;83;20132;-81
2022/04/05 08:14:10;;;;;;;;;;;;;;;4.39;81.00;98756.64;2122627;83;20154;-80
2022/04/05 08:17:11;;;;;;;;;;;;;;;4.43;80.98;98761.92;2124980;83;20155;-80
2022/04/05 08:20:12;;;;;;;;;;;;;;;4.52;81.26;98766.20;2124327;83;20157;-81
2022/04/05 08:23:13;;;;;;;;;;;;;;;4.59;81.55;98775.10;2124726;82;20504;-81
2022/04/05 08:26:14;;;;;;;;;;;;;;;4.63;81.23;98782.16;2123789;83;20142;-80
2022/04/05 08:29:15;;;;;;;;;;;;;;;4.63;80.77;98787.42;2125442;83;20423;-82
2022/04/05 08:32:16;;;;;;;;;;;;;;;4.60;80.79;98778.05;2126955;83;20132;-81
2022/04/05 08:35:19;;;;;;;;;;;;;;;4.61;81.25;98782.31;2122559;83;20555;-81
2022/04/05 08:38:20;;;;;;;;;;;;;;;4.69;81.87;98786.27;2126402;83;20260;-81
2022/04/05 08:41:24;;;;;;;;;;;;;;;4.76;81.12;98792.19;2122384;83;20206;-81
2022/04/05 08:44:25;;;;;;;;;;;;;;;4.81;81.19;98793.34;2126926;83;20475;-82
2022/04/05 08:47:26;;;;;;;;;;;;;;;4.94;81.17;98785.81;2120285;82;20193;-81
2022/04/05 08:50:30;;;;;;;;;;;;;;;5.10;80.72;98788.14;2108329;83;20162;-80
2022/04/05 08:53:32;;;;;;;;;;;;;;;5.21;80.77;98796.17;2110901;83;20138;-83
2022/04/05 08:56:33;;;;;;;;;;;;;;;5.37;80.58;98801.43;2107909;83;20518;-81
2022/04/05 08:59:35;;;;;;;;;;;;;;;5.44;80.31;98806.88;2106182;83;20149;-83
2022/04/05 09:02:36;;;;;;;;;;;;;;;5.49;79.87;98803.22;2110700;83;20162;-81
2022/04/05 09:05:43;;;;;;;;;;;;;;;5.43;79.31;98810.47;2107764;83;20143;-79
2022/04/05 09:08:47;;;;;;;;;;;;;;;5.35;79.37;98819.17;2108665;83;20533;-84
2022/04/05 09:11:50;;;;;;;;;;;;;;;5.25;78.93;98815.41;2113520;83;20178;-82
2022/04/05 09:14:52;;;;;;;;;;;;;;;5.20;79.02;98817.70;2112358;83;20151;-82
2022/04/05 09:17:53;;;;;;;;;;;;;;;5.21;79.40;98819.84;2113691;83;20487;-82
2022/04/05 09:20:54;;;;;;;;;;;;;;;5.20;79.57;98825.59;2109971;83;20155;-80
2022/04/05 09:23:59;;;;;;;;;;;;;;;5.20;79.59;98822.97;2109607;83;20612;-80
2022/04/05 09:27:00;;;;;;;;;;;;;;;5.27;79.63;98821.84;2109829;83;20165;-79
2022/04/05 09:30:02;;;;;;;;;;;;;;;5.31;79.55;98827.90;2106554;83;20182;-82
2022/04/05 09:33:04;;;;;;;;;;;;;;;5.48;79.73;98822.64;2105663;83;20210;-82
2022/04/05 09:36:08;;;;;;;;;;;;;;;5.55;79.33;98825.77;2110824;83;20150;-83
2022/04/05 09:39:15;;;;;;;;;;;;;;;5.61;79.42;98833.48;2109302;83;20157;-80
2022/04/05 09:42:16;;;;;;;;;;;;;;;5.75;79.51;98828.86;2109233;83;20149;-83
2022/04/05 09:45:17;;;;;;;;;;;;;;;5.88;79.44;98836.23;2107291;83;20147;-82
2022/04/05 09:48:23;;;;;;;;;;;;;;;5.92;79.08;98830.97;2112030;83;20151;-83
2022/04/05 09:51:24;;;;;;;;;;;;;;;5.91;78.77;98835.89;2104695;84;20154;-81
2022/04/05 09:54:28;;;;;;;;;;;;;;;5.94;78.78;98827.71;2102650;84;20146;-81
2022/04/05 09:57:33;;;;;;;;;;;;;;;5.96;78.69;98824.89;2104460;84;20154;-79
2022/04/05 10:00:34;;;;;;;;;;;;;;;6.01;77.29;98819.95;2105356;84;20167;-77
2022/04/05 10:03:35;;;;;;;;;;;;;;;6.12;78.33;98813.00;2108508;83;20140;-79
2022/04/05 10:06:43;;;;;;;;;;;;;;;6.27;77.21;98812.60;2099141;84;20504;-82
2022/04/05 10:09:40;;;;;;;;;;;;;;;6.54;77.92;98817.61;2106006;84;20477;-82
2022/04/05 10:12:41;;;;;;;;;;;;;;;6.80;76.94;98818.61;2103984;84;20133;-83
2022/04/05 10:15:44;;;;;;;;;;;;;;;6.96;76.60;98811.42;2107991;84;20489;-80
2022/04/05 10:18:48;;;;;;;;;;;;;;;7.08;76.16;98818.42;2088430;84;20148;-80
2022/04/05 10:21:49;;;;;;;;;;;;;;;7.14;75.52;98827.45;2107071;83;20134;-81
2022/04/05 10:24:52;;;;;;;;;;;;;;;7.11;74.63;98811.47;2103108;83;20466;-83
2022/04/05 10:27:53;;;;;;;;;;;;;;;7.16;74.21;98818.88;2108101;84;20170;-82
2022/04/05 10:31:01;;;;;;;;;;;;;;;7.20;72.51;98830.70;2108533;83;20120;-81
2022/04/05 10:34:26;;;;;;;;;;;;;;;7.14;72.73;98838.00;2106293;83;20136;-82
2022/04/05 10:37:36;;;;;;;;;;;;;;;7.10;71.60;98838.86;2107898;84;20900;-79
2022/04/05 10:40:37;;;;;;;;;;;;;;;7.12;72.21;98843.94;2105645;83;20118;-83
2022/04/05 10:43:39;;;;;;;;;;;;;;;7.12;71.80;98844.79;2108328;84;20143;-80
2022/04/05 10:46:42;;;;;;;;;;;;;;;7.24;71.26;98852.30;2104209;84;20158;-82
2022/04/05 10:49:47;;;;;;;;;;;;;;;7.15;70.64;98851.50;2113377;83;20130;-82
2022/04/05 10:52:52;;;;;;;;;;;;;;;7.06;71.44;98838.87;2110444;83;20165;-80
2022/04/05 10:56:10;;;;;;;;;;;;;;;7.33;72.19;98841.48;2111962;83;20199;-82
2022/04/05 10:59:16;;;;;;;;;;;;;;;7.54;71.36;98837.35;2112031;83;20413;-81
2022/04/05 11:02:33;;;;;;;;;;;;;;;7.88;71.29;98838.19;2111667;83;20168;-81
2022/04/05 11:05:40;;;;;;;;;;;;;;;8.18;70.30;98838.22;2113092;83;20122;-80
2022/04/05 11:08:42;;;;;;;;;;;;;;;8.47;70.55;98847.46;2106800;83;20264;-81
2022/04/05 11:11:43;;;;;;;;;;;;;;;8.66;68.72;98842.11;2104339;83;20157;-81
2022/04/05 11:14:49;;;;;;;;;;;;;;;8.58;68.95;98857.27;2112407;83;20182;-80
2022/04/05 11:17:50;;;;;;;;;;;;;;;8.74;68.66;98861.02;2110910;83;20463;-81
2022/04/05 11:20:54;;;;;;;;;;;;;;;8.96;67.87;98858.73;2112786;83;20173;-79
2022/04/05 11:23:55;;;;;;;;;;;;;;;8.98;67.32;98864.67;2107002;83;20187;-80
2022/04/05 11:26:59;;;;;;;;;;;;;;;9.10;66.80;98845.66;2108817;83;20129;-81
2022/04/05 11:30:27;;;;;;;;;;;;;;;9.04;65.08;98864.91;2098508;83;20158;-81
2022/04/05 11:33:34;;;;;;;;;;;;;;;9.05;66.04;98861.27;2111322;83;20148;-80
2022/04/05 11:36:42;;;;;;;;;;;;;;;9.12;66.29;98864.79;2115459;83;20570;-81
2022/04/05 11:39:44;;;;;;;;;;;;;;;9.04;65.39;98860.94;2107930;83;20165;-79
2022/04/05 11:42:45;;;;;;;;;;;;;;;9.45;65.79;98861.66;2107630;83;20168;-81
2022/04/05 11:45:46;;;;;;;;;;;;;;;9.64;64.65;98855.20;2110950;83;20150;-81
2022/04/05 11:48:55;;;;;;;;;;;;;;;9.57;64.69;98873.36;2119816;82;20193;-79
2022/04/05 11:51:56;;;;;;;;;;;;;;;9.30;63.80;98871.81;2126792;83;20200;-81
2022/04/05 11:58:13;;;;;;;;;;;;;;;8.68;63.52;98876.31;2071206;83;20186;-79
2022/04/05 12:01:20;;;;;;;;;;;;;;;8.35;62.77;98880.63;2127232;82;20150;-81
2022/04/05 12:04:22;;;;;;;;;;;;;;;7.99;63.47;98882.64;2123697;82;20120;-79
2022/04/05 12:07:23;;;;;;;;;;;;;;;7.82;63.97;98885.12;2122684;83;20158;-82
2022/04/05 12:10:24;;;;;;;;;;;;;;;7.82;64.82;98896.50;2122958;83;20452;-84
2022/04/05 12:13:34;;;;;;;;;;;;;;;7.80;65.10;98895.88;2111770;83;20189;-81
2022/04/05 12:16:52;;;;;;;;;;;;;;;7.68;64.77;98897.80;2126011;83;20139;-82
2022/04/05 12:19:53;;;;;;;;;;;;;;;7.51;65.11;98901.88;2123589;83;20523;-82
2022/04/05 12:22:54;;;;;;;;;;;;;;;7.38;65.68;98907.76;2122954;83;20116;-82
2022/04/05 12:26:11;;;;;;;;;;;;;;;7.34;65.48;98897.72;2121213;83;20167;-83
2022/04/05 12:29:12;;;;;;;;;;;;;;;7.34;65.99;98890.62;2127299;82;20197;-81
2022/04/05 12:32:13;;;;;;;;;;;;;;;7.43;65.80;98899.80;2127366;82;20427;-81
2022/04/05 12:35:15;;;;;;;;;;;;;;;7.53;65.48;98884.05;2124992;82;20164;-82
2022/04/05 12:38:16;;;;;;;;;;;;;;;7.69;66.57;98895.49;2124501;82;20218;-81
2022/04/05 12:41:19;;;;;;;;;;;;;;;7.88;65.89;98892.83;2124722;82;20494;-83
2022/04/05 12:44:22;;;;;;;;;;;;;;;7.99;65.83;98891.08;2125116;82;20171;-79
2022/04/05 12:47:25;;;;;;;;;;;;;;;8.09;65.64;98886.36;2122515;82;20218;-81
2022/04/05 12:50:26;;;;;;;;;;;;;;;8.14;65.10;98889.29;2114537;83;20533;-79
2022/04/05 12:53:30;;;;;;;;;;;;;;;8.26;65.78;98883.05;2118579;83;20135;-84
2022/04/05 12:56:32;;;;;;;;;;;;;;;8.34;63.70;98872.39;2116742;83;20130;-84
2022/04/05 12:59:33;;;;;;;;;;;;;;;8.37;64.76;98881.27;2116911;83;20147;-83
2022/04/05 13:02:41;;;;;;;;;;;;;;;8.44;63.83;98888.80;2114011;83;20179;-83
2022/04/05 13:09:09;;;;;;;;;;;;;;;8.32;63.08;98883.64;2116091;83;20665;-81
2022/04/05 13:12:16;;;;;;;;;;;;;;;8.20;62.79;98881.95;2097374;83;20154;-83
2022/04/05 13:15:20;;;;;;;;;;;;;;;8.17;63.56;98896.03;2130631;82;20123;-81
2022/04/05 13:18:21;;;;;;;;;;;;;;;8.16;63.50;98891.73;2084002;83;20185;-83
2022/04/05 13:21:22;;;;;;;;;;;;;;;8.09;62.91;98879.25;2093296;84;20137;-82
2022/04/05 13:24:28;;;;;;;;;;;;;;;8.05;63.57;98894.31;2098832;84;20179;-81
2022/04/05 13:27:29;;;;;;;;;;;;;;;8.02;62.37;98896.81;2094834;84;20136;-82
2022/04/05 13:30:42;;;;;;;;;;;;;;;7.99;62.22;98897.17;2095288;84;20531;-81
2022/04/05 13:33:44;;;;;;;;;;;;;;;7.94;63.50;98907.48;2093695;84;20160;-80
2022/04/05 13:36:46;;;;;;;;;;;;;;;7.85;63.08;98898.81;2091260;84;20133;-85
2022/04/05 13:39:54;;;;;;;;;;;;;;;7.86;63.71;98910.19;2092080;84;20165;-80
2022/04/05 13:42:55;;;;;;;;;;;;;;;7.89;63.87;98909.02;2093043;84;20116;-83
2022/04/05 13:45:56;;;;;;;;;;;;;;;7.94;64.58;98904.84;2092444;84;20173;-80
2022/04/05 13:48:58;;;;;;;;;;;;;;;7.99;64.19;98903.77;2095455;83;20342;-83
2022/04/05 13:52:00;;;;;;;;;;;;;;;7.99;64.22;98903.77;2109134;83;20488;-83
2022/04/05 13:55:04;;;;;;;;;;;;;;;7.94;64.47;98908.80;2109049;83;20131;-83
2022/04/05 13:58:04;;;;;;;;;;;;;;;7.88;64.20;98910.81;2113776;83;20136;-81
2022/04/05 14:01:05;;;;;;;;;;;;;;;7.84;64.90;98916.95;2107068;83;20130;-83
2022/04/05 14:04:07;;;;;;;;;;;;;;;7.76;64.62;98918.84;2146192;81;20568;-82
2022/04/05 14:07:11;;;;;;;;;;;;;;;7.71;64.71;98915.41;2118651;82;20206;-82
2022/04/05 14:10:14;;;;;;;;;;;;;;;7.68;65.04;98912.31;2145874;81;20181;-83
2022/04/05 14:13:15;;;;;;;;;;;;;;;7.65;64.72;98901.61;2111055;83;20147;-80
2022/04/05 14:16:17;;;;;;;;;;;;;;;7.61;65.16;98911.70;2152080;81;20118;-82
2022/04/05 14:19:18;;;;;;;;;;;;;;;7.59;65.25;98905.77;2111393;83;20213;-82
2022/04/05 14:22:18;;;;;;;;;;;;;;;7.53;65.03;98905.16;2130245;82;20178;-81
2022/04/05 14:25:19;;;;;;;;;;;;;;;7.49;64.91;98921.52;2126590;82;20131;-80
2022/04/05 14:28:21;;;;;;;;;;;;;;;7.40;65.20;98916.33;2127895;82;20134;-82
2022/04/05 14:31:22;;;;;;;;;;;;;;;7.34;65.38;98924.92;2129321;82;20128;-84
2022/04/05 14:34:24;;;;;;;;;;;;;;;7.29;65.49;98917.20;2132021;82;20500;-83
2022/04/05 14:37:25;;;;;;;;;;;;;;;7.25;65.78;98915.92;2132549;82;20132;-79
2022/04/05 14:40:26;;;;;;;;;;;;;;;7.16;65.38;98921.25;2128561;82;20118;-81
2022/04/05 14:43:27;;;;;;;;;;;;;;;7.13;65.71;98926.06;2126917;82;20167;-81
2022/04/05 14:46:30;;;;;;;;;;;;;;;7.12;66.08;98913.38;2126172;82;20450;-83
2022/04/05 14:49:32;;;;;;;;;;;;;;;7.12;65.98;98919.97;2120894;82;20171;-81
2022/04/05 14:52:33;;;;;;;;;;;;;;;7.06;65.78;98915.86;2121628;83;20432;-80
2022/04/05 14:55:35;;;;;;;;;;;;;;;7.06;66.14;98920.64;2114164;83;20135;-81
2022/04/05 14:58:36;;;;;;;;;;;;;;;7.09;66.68;98917.65;2117159;83;20107;-81
2022/04/05 15:01:37;;;;;;;;;;;;;;;7.09;66.23;98924.75;2112945;83;20199;-84
2022/04/05 15:04:38;;;;;;;;;;;;;;;7.08;66.66;98921.80;2113688;83;20151;-81
2022/04/05 15:07:40;;;;;;;;;;;;;;;7.09;66.87;98927.38;2116068;83;20519;-81
2022/04/05 15:10:41;;;;;;;;;;;;;;;7.13;66.90;98922.92;2113084;83;20184;-83
2022/04/05 15:13:42;;;;;;;;;;;;;;;7.11;66.69;98918.30;2114471;83;20119;-81
2022/04/05 15:16:44;;;;;;;;;;;;;;;7.08;66.80;98925.25;2109499;83;20152;-84
2022/04/05 15:19:45;;;;;;;;;;;;;;;7.06;66.71;98918.00;2098818;83;20132;-83
2022/04/05 15:22:46;;;;;;;;;;;;;;;7.05;66.87;98922.96;2113219;83;20501;-82
2022/04/05 15:25:47;;;;;;;;;;;;;;;7.12;67.27;98924.39;2115668;83;20150;-82
2022/04/05 15:28:48;;;;;;;;;;;;;;;7.11;67.01;98919.63;2109583;83;20177;-82
2022/04/05 15:31:49;;;;;;;;;;;;;;;7.15;67.41;98923.58;2113346;83;20124;-86
2022/04/05 15:34:50;;;;;;;;;;;;;;;7.17;67.59;98918.92;2111267;83;20616;-84
2022/04/05 15:37:51;;;;;;;;;;;;;;;7.18;67.54;98913.17;2112079;83;20171;-83
2022/04/05 15:40:52;;;;;;;;;;;;;;;7.19;67.33;98908.21;2116509;83;20502;-81
2022/04/05 15:43:54;;;;;;;;;;;;;;;7.21;67.74;98916.78;2115540;83;20187;-83
2022/04/05 15:46:56;;;;;;;;;;;;;;;7.22;67.81;98917.09;2113591;83;20155;-83
2022/04/05 15:49:57;;;;;;;;;;;;;;;7.23;67.86;98914.77;2118248;82;20173;-79
2022/04/05 15:53:00;;;;;;;;;;;;;;;7.24;67.77;98915.11;2126364;82;20205;-84
2022/04/05 15:56:13;;;;;;;;;;;;;;;7.23;67.81;98919.23;2129763;82;20168;-84
2022/04/05 15:59:19;;;;;;;;;;;;;;;7.22;67.83;98922.37;2129123;82;20160;-83
2022/04/05 16:02:17;;;;;;;;;;;;;;;7.22;67.75;98922.88;2130687;82;20137;-81
2022/04/05 16:05:19;;;;;;;;;;;;;;;7.22;68.04;98932.11;2128961;82;20190;-83
2022/04/05 16:08:20;;;;;;;;;;;;;;;7.18;68.00;98929.82;2128168;82;20195;-82
2022/04/05 16:11:21;;;;;;;;;;;;;;;7.13;68.17;98937.42;2133352;82;20166;-81
2022/04/05 16:14:23;;;;;;;;;;;;;;;7.09;68.20;98930.02;2130445;82;20134;-81